sensor_id;sensor_type;location;lat;lon;timestamp;P1;durP1;ratioP1;P2;durP2;ratioP2
42906;SDS011;28552;51.146;6.576;2022-08-03T00:02:01;2.85;;;1.20;;
42906;SDS011;28552;51.146;6.576;2022-08-03T00:05:03;2.45;;;0.90;;
42906;SDS011;28552;51.146;6.576;2022-08-03T00:08:03;2.53;;;1.10;;
42906;SDS011;28552;51.146;6.576;2022-08-03T00:11:04;3.25;;;0.90;;
42906;SDS011;28552;51.146;6.576;2022-08-03T00:14:06;2.83;;;1.27;;
42906;SDS011;28552;51.146;6.576;2022-08-03T00:17:06;7.80;;;1.40;;
42906;SDS011;28552;51.146;6.576;2022-08-03T00:20:07;3.08;;;1.10;;
42906;SDS011;28552;51.146;6.576;2022-08-03T00:23:08;6.13;;;1.65;;
42906;SDS011;28552;51.146;6.576;2022-08-03T00:26:09;4.95;;;1.83;;
42906;SDS011;28552;51.146;6.576;2022-08-03T00:29:09;3.13;;;1.30;;
42906;SDS011;28552;51.146;6.576;2022-08-03T00:32:10;4.25;;;1.20;;
42906;SDS011;28552;51.146;6.576;2022-08-03T00:35:11;5.10;;;1.48;;
42906;SDS011;28552;51.146;6.576;2022-08-03T00:38:11;2.58;;;1.05;;
42906;SDS011;28552;51.146;6.576;2022-08-03T00:41:12;6.20;;;1.10;;
42906;SDS011;28552;51.146;6.576;2022-08-03T00:44:13;2.28;;;1.00;;
42906;SDS011;28552;51.146;6.576;2022-08-03T00:47:13;5.18;;;1.20;;
42906;SDS011;28552;51.146;6.576;2022-08-03T00:50:14;5.47;;;1.15;;
42906;SDS011;28552;51.146;6.576;2022-08-03T00:53:16;3.60;;;1.10;;
42906;SDS011;28552;51.146;6.576;2022-08-03T00:56:16;3.15;;;1.10;;
42906;SDS011;28552;51.146;6.576;2022-08-03T00:59:17;1.88;;;0.82;;
42906;SDS011;28552;51.146;6.576;2022-08-03T01:02:18;8.63;;;1.30;;
42906;SDS011;28552;51.146;6.576;2022-08-03T01:05:19;2.88;;;1.13;;
42906;SDS011;28552;51.146;6.576;2022-08-03T01:08:27;3.08;;;1.08;;
42906;SDS011;28552;51.146;6.576;2022-08-03T01:11:43;2.30;;;0.80;;
42906;SDS011;28552;51.146;6.576;2022-08-03T01:14:54;2.72;;;0.90;;
42906;SDS011;28552;51.146;6.576;2022-08-03T01:18:05;2.67;;;1.17;;
42906;SDS011;28552;51.146;6.576;2022-08-03T01:21:12;7.38;;;1.13;;
42906;SDS011;28552;51.146;6.576;2022-08-03T01:31:00;2.65;;;1.05;;
42906;SDS011;28552;51.146;6.576;2022-08-03T01:34:06;3.25;;;1.02;;
42906;SDS011;28552;51.146;6.576;2022-08-03T01:37:11;8.07;;;1.50;;
42906;SDS011;28552;51.146;6.576;2022-08-03T01:40:18;3.53;;;1.40;;
42906;SDS011;28552;51.146;6.576;2022-08-03T01:43:22;3.83;;;1.33;;
42906;SDS011;28552;51.146;6.576;2022-08-03T01:46:27;2.83;;;1.30;;
42906;SDS011;28552;51.146;6.576;2022-08-03T01:49:31;3.15;;;1.05;;
42906;SDS011;28552;51.146;6.576;2022-08-03T01:52:36;4.07;;;1.02;;
42906;SDS011;28552;51.146;6.576;2022-08-03T01:55:40;3.22;;;1.13;;
42906;SDS011;28552;51.146;6.576;2022-08-03T01:58:43;5.88;;;2.08;;
42906;SDS011;28552;51.146;6.576;2022-08-03T02:01:47;3.67;;;1.25;;
42906;SDS011;28552;51.146;6.576;2022-08-03T02:04:48;4.82;;;1.45;;
42906;SDS011;28552;51.146;6.576;2022-08-03T02:07:51;3.67;;;1.35;;
42906;SDS011;28552;51.146;6.576;2022-08-03T02:10:54;3.63;;;1.30;;
42906;SDS011;28552;51.146;6.576;2022-08-03T02:13:57;3.20;;;1.05;;
42906;SDS011;28552;51.146;6.576;2022-08-03T02:17:01;3.10;;;1.17;;
42906;SDS011;28552;51.146;6.576;2022-08-03T02:20:02;3.22;;;1.20;;
42906;SDS011;28552;51.146;6.576;2022-08-03T02:23:04;3.40;;;1.20;;
42906;SDS011;28552;51.146;6.576;2022-08-03T02:26:07;4.00;;;1.40;;
42906;SDS011;28552;51.146;6.576;2022-08-03T02:29:15;3.35;;;1.30;;
42906;SDS011;28552;51.146;6.576;2022-08-03T02:32:23;3.75;;;1.40;;
42906;SDS011;28552;51.146;6.576;2022-08-03T02:35:28;3.70;;;1.27;;
42906;SDS011;28552;51.146;6.576;2022-08-03T02:38:32;3.42;;;1.48;;
42906;SDS011;28552;51.146;6.576;2022-08-03T02:41:36;4.93;;;1.50;;
42906;SDS011;28552;51.146;6.576;2022-08-03T02:44:40;3.13;;;1.27;;
42906;SDS011;28552;51.146;6.576;2022-08-03T02:47:47;3.33;;;1.20;;
42906;SDS011;28552;51.146;6.576;2022-08-03T02:50:50;3.30;;;1.00;;
42906;SDS011;28552;51.146;6.576;2022-08-03T02:53:53;5.47;;;1.30;;
42906;SDS011;28552;51.146;6.576;2022-08-03T02:56:55;4.63;;;1.30;;
42906;SDS011;28552;51.146;6.576;2022-08-03T02:59:57;3.15;;;1.13;;
42906;SDS011;28552;51.146;6.576;2022-08-03T03:03:00;5.15;;;1.50;;
42906;SDS011;28552;51.146;6.576;2022-08-03T03:06:03;3.92;;;1.30;;
42906;SDS011;28552;51.146;6.576;2022-08-03T03:09:05;3.65;;;1.17;;
42906;SDS011;28552;51.146;6.576;2022-08-03T03:12:07;4.32;;;1.70;;
42906;SDS011;28552;51.146;6.576;2022-08-03T03:15:09;5.30;;;2.05;;
42906;SDS011;28552;51.146;6.576;2022-08-03T03:18:10;4.38;;;1.60;;
42906;SDS011;28552;51.146;6.576;2022-08-03T03:21:13;3.33;;;1.60;;
42906;SDS011;28552;51.146;6.576;2022-08-03T03:24:16;5.05;;;1.70;;
42906;SDS011;28552;51.146;6.576;2022-08-03T03:27:17;5.43;;;1.60;;
42906;SDS011;28552;51.146;6.576;2022-08-03T03:30:18;3.58;;;1.40;;
42906;SDS011;28552;51.146;6.576;2022-08-03T03:33:19;5.05;;;1.55;;
42906;SDS011;28552;51.146;6.576;2022-08-03T03:36:21;5.55;;;1.88;;
42906;SDS011;28552;51.146;6.576;2022-08-03T03:39:21;7.65;;;1.50;;
42906;SDS011;28552;51.146;6.576;2022-08-03T03:42:22;2.90;;;1.30;;
42906;SDS011;28552;51.146;6.576;2022-08-03T03:45:24;4.60;;;1.67;;
42906;SDS011;28552;51.146;6.576;2022-08-03T03:48:26;2.65;;;1.20;;
42906;SDS011;28552;51.146;6.576;2022-08-03T03:51:27;4.82;;;1.65;;
42906;SDS011;28552;51.146;6.576;2022-08-03T03:57:43;5.07;;;1.58;;
42906;SDS011;28552;51.146;6.576;2022-08-03T04:00:44;4.20;;;1.70;;
42906;SDS011;28552;51.146;6.576;2022-08-03T04:03:45;4.72;;;1.33;;
42906;SDS011;28552;51.146;6.576;2022-08-03T04:06:45;4.85;;;1.63;;
42906;SDS011;28552;51.146;6.576;2022-08-03T04:10:02;4.20;;;1.73;;
42906;SDS011;28552;51.146;6.576;2022-08-03T04:13:26;4.32;;;1.75;;
42906;SDS011;28552;51.146;6.576;2022-08-03T04:16:34;3.58;;;1.45;;
42906;SDS011;28552;51.146;6.576;2022-08-03T04:19:37;5.70;;;1.50;;
42906;SDS011;28552;51.146;6.576;2022-08-03T04:22:41;4.57;;;1.58;;
42906;SDS011;28552;51.146;6.576;2022-08-03T04:25:42;3.13;;;1.45;;
42906;SDS011;28552;51.146;6.576;2022-08-03T04:28:43;3.83;;;1.30;;
42906;SDS011;28552;51.146;6.576;2022-08-03T04:31:45;4.72;;;1.88;;
42906;SDS011;28552;51.146;6.576;2022-08-03T04:34:47;5.80;;;2.15;;
42906;SDS011;28552;51.146;6.576;2022-08-03T04:37:48;5.03;;;1.42;;
42906;SDS011;28552;51.146;6.576;2022-08-03T04:40:51;7.18;;;1.70;;
42906;SDS011;28552;51.146;6.576;2022-08-03T04:43:54;5.68;;;1.75;;
42906;SDS011;28552;51.146;6.576;2022-08-03T04:46:56;3.58;;;1.50;;
42906;SDS011;28552;51.146;6.576;2022-08-03T04:49:59;4.78;;;1.70;;
42906;SDS011;28552;51.146;6.576;2022-08-03T04:53:01;5.15;;;2.13;;
42906;SDS011;28552;51.146;6.576;2022-08-03T04:56:02;5.00;;;1.88;;
42906;SDS011;28552;51.146;6.576;2022-08-03T04:59:04;4.88;;;1.60;;
42906;SDS011;28552;51.146;6.576;2022-08-03T05:02:05;3.78;;;1.70;;
42906;SDS011;28552;51.146;6.576;2022-08-03T05:05:06;3.65;;;1.73;;
42906;SDS011;28552;51.146;6.576;2022-08-03T05:08:06;5.45;;;2.00;;
42906;SDS011;28552;51.146;6.576;2022-08-03T05:11:07;3.78;;;1.40;;
42906;SDS011;28552;51.146;6.576;2022-08-03T05:14:07;4.75;;;1.80;;
42906;SDS011;28552;51.146;6.576;2022-08-03T05:17:08;6.05;;;2.10;;
42906;SDS011;28552;51.146;6.576;2022-08-03T05:20:09;5.75;;;1.77;;
42906;SDS011;28552;51.146;6.576;2022-08-03T05:23:10;3.50;;;1.50;;
42906;SDS011;28552;51.146;6.576;2022-08-03T05:26:10;5.05;;;2.05;;
42906;SDS011;28552;51.146;6.576;2022-08-03T05:29:11;5.05;;;1.80;;
42906;SDS011;28552;51.146;6.576;2022-08-03T05:32:12;8.10;;;2.13;;
42906;SDS011;28552;51.146;6.576;2022-08-03T05:35:12;3.67;;;1.58;;
42906;SDS011;28552;51.146;6.576;2022-08-03T05:38:13;8.00;;;1.98;;
42906;SDS011;28552;51.146;6.576;2022-08-03T05:41:13;4.70;;;1.67;;
42906;SDS011;28552;51.146;6.576;2022-08-03T05:44:14;3.97;;;1.60;;
42906;SDS011;28552;51.146;6.576;2022-08-03T05:47:14;6.40;;;1.83;;
42906;SDS011;28552;51.146;6.576;2022-08-03T05:50:15;5.28;;;1.85;;
42906;SDS011;28552;51.146;6.576;2022-08-03T05:53:17;6.18;;;1.80;;
42906;SDS011;28552;51.146;6.576;2022-08-03T05:56:20;7.78;;;2.58;;
42906;SDS011;28552;51.146;6.576;2022-08-03T05:59:23;4.38;;;1.80;;
42906;SDS011;28552;51.146;6.576;2022-08-03T06:02:25;5.57;;;1.88;;
42906;SDS011;28552;51.146;6.576;2022-08-03T06:05:26;4.03;;;1.50;;
42906;SDS011;28552;51.146;6.576;2022-08-03T06:08:27;7.32;;;2.00;;
42906;SDS011;28552;51.146;6.576;2022-08-03T06:11:28;3.88;;;1.60;;
42906;SDS011;28552;51.146;6.576;2022-08-03T06:14:28;4.97;;;1.80;;
42906;SDS011;28552;51.146;6.576;2022-08-03T06:17:29;5.22;;;2.00;;
42906;SDS011;28552;51.146;6.576;2022-08-03T06:20:29;4.93;;;1.67;;
42906;SDS011;28552;51.146;6.576;2022-08-03T06:23:30;9.32;;;1.98;;
42906;SDS011;28552;51.146;6.576;2022-08-03T06:26:31;4.65;;;1.58;;
42906;SDS011;28552;51.146;6.576;2022-08-03T06:29:31;3.22;;;1.63;;
42906;SDS011;28552;51.146;6.576;2022-08-03T06:32:32;5.05;;;2.15;;
42906;SDS011;28552;51.146;6.576;2022-08-03T06:35:33;3.22;;;1.48;;
42906;SDS011;28552;51.146;6.576;2022-08-03T06:38:33;4.25;;;1.52;;
42906;SDS011;28552;51.146;6.576;2022-08-03T06:41:34;3.60;;;1.52;;
42906;SDS011;28552;51.146;6.576;2022-08-03T06:44:35;3.42;;;1.02;;
42906;SDS011;28552;51.146;6.576;2022-08-03T06:47:38;3.58;;;1.27;;
42906;SDS011;28552;51.146;6.576;2022-08-03T06:50:39;4.60;;;1.30;;
42906;SDS011;28552;51.146;6.576;2022-08-03T06:53:41;7.50;;;1.20;;
42906;SDS011;28552;51.146;6.576;2022-08-03T06:56:41;5.70;;;1.65;;
42906;SDS011;28552;51.146;6.576;2022-08-03T06:59:42;5.80;;;2.28;;
42906;SDS011;28552;51.146;6.576;2022-08-03T07:02:42;5.95;;;1.70;;
42906;SDS011;28552;51.146;6.576;2022-08-03T07:05:43;3.15;;;1.15;;
42906;SDS011;28552;51.146;6.576;2022-08-03T07:08:46;5.07;;;1.45;;
42906;SDS011;28552;51.146;6.576;2022-08-03T07:11:46;3.05;;;1.10;;
42906;SDS011;28552;51.146;6.576;2022-08-03T07:14:47;4.65;;;1.30;;
42906;SDS011;28552;51.146;6.576;2022-08-03T07:17:47;8.63;;;1.38;;
42906;SDS011;28552;51.146;6.576;2022-08-03T07:20:48;4.45;;;1.20;;
42906;SDS011;28552;51.146;6.576;2022-08-03T07:23:48;7.80;;;1.40;;
42906;SDS011;28552;51.146;6.576;2022-08-03T07:26:49;6.60;;;1.10;;
42906;SDS011;28552;51.146;6.576;2022-08-03T07:29:49;8.77;;;1.35;;
42906;SDS011;28552;51.146;6.576;2022-08-03T07:32:50;5.82;;;1.27;;
42906;SDS011;28552;51.146;6.576;2022-08-03T07:35:51;4.85;;;1.17;;
42906;SDS011;28552;51.146;6.576;2022-08-03T07:38:51;4.90;;;0.90;;
42906;SDS011;28552;51.146;6.576;2022-08-03T07:41:52;5.97;;;1.23;;
42906;SDS011;28552;51.146;6.576;2022-08-03T07:44:52;3.88;;;1.20;;
42906;SDS011;28552;51.146;6.576;2022-08-03T07:47:53;2.63;;;1.10;;
42906;SDS011;28552;51.146;6.576;2022-08-03T07:50:54;4.72;;;1.20;;
42906;SDS011;28552;51.146;6.576;2022-08-03T07:53:54;3.35;;;1.05;;
42906;SDS011;28552;51.146;6.576;2022-08-03T07:56:56;2.97;;;1.27;;
42906;SDS011;28552;51.146;6.576;2022-08-03T07:59:57;2.83;;;0.80;;
42906;SDS011;28552;51.146;6.576;2022-08-03T08:02:58;4.22;;;1.08;;
42906;SDS011;28552;51.146;6.576;2022-08-03T08:05:58;5.03;;;1.38;;
42906;SDS011;28552;51.146;6.576;2022-08-03T08:08:59;3.72;;;1.30;;
42906;SDS011;28552;51.146;6.576;2022-08-03T08:12:01;1.98;;;0.63;;
42906;SDS011;28552;51.146;6.576;2022-08-03T08:15:02;2.90;;;1.00;;
42906;SDS011;28552;51.146;6.576;2022-08-03T08:18:03;4.80;;;1.42;;
42906;SDS011;28552;51.146;6.576;2022-08-03T08:21:04;3.50;;;1.20;;
42906;SDS011;28552;51.146;6.576;2022-08-03T08:24:05;2.35;;;1.05;;
42906;SDS011;28552;51.146;6.576;2022-08-03T08:27:05;4.55;;;0.98;;
42906;SDS011;28552;51.146;6.576;2022-08-03T08:30:07;2.17;;;0.85;;
42906;SDS011;28552;51.146;6.576;2022-08-03T08:33:08;2.75;;;0.88;;
42906;SDS011;28552;51.146;6.576;2022-08-03T08:36:09;2.20;;;0.75;;
42906;SDS011;28552;51.146;6.576;2022-08-03T08:39:10;2.53;;;0.77;;
42906;SDS011;28552;51.146;6.576;2022-08-03T08:42:11;1.73;;;0.80;;
42906;SDS011;28552;51.146;6.576;2022-08-03T08:45:11;2.60;;;0.80;;
42906;SDS011;28552;51.146;6.576;2022-08-03T08:48:14;2.67;;;0.90;;
42906;SDS011;28552;51.146;6.576;2022-08-03T08:51:21;2.25;;;0.82;;
42906;SDS011;28552;51.146;6.576;2022-08-03T08:54:26;3.90;;;0.95;;
42906;SDS011;28552;51.146;6.576;2022-08-03T08:57:29;3.22;;;0.98;;
42906;SDS011;28552;51.146;6.576;2022-08-03T09:00:33;1.50;;;0.80;;
42906;SDS011;28552;51.146;6.576;2022-08-03T09:03:34;4.57;;;0.95;;
42906;SDS011;28552;51.146;6.576;2022-08-03T09:06:35;3.13;;;1.10;;
42906;SDS011;28552;51.146;6.576;2022-08-03T09:09:35;3.63;;;1.00;;
42906;SDS011;28552;51.146;6.576;2022-08-03T09:12:37;4.07;;;0.80;;
42906;SDS011;28552;51.146;6.576;2022-08-03T09:15:41;3.38;;;1.27;;
42906;SDS011;28552;51.146;6.576;2022-08-03T09:18:42;2.28;;;0.80;;
42906;SDS011;28552;51.146;6.576;2022-08-03T09:21:45;2.90;;;0.73;;
42906;SDS011;28552;51.146;6.576;2022-08-03T09:25:05;2.20;;;0.90;;
42906;SDS011;28552;51.146;6.576;2022-08-03T09:28:09;4.00;;;1.05;;
42906;SDS011;28552;51.146;6.576;2022-08-03T09:31:11;2.35;;;1.15;;
42906;SDS011;28552;51.146;6.576;2022-08-03T09:34:14;2.47;;;0.88;;
42906;SDS011;28552;51.146;6.576;2022-08-03T09:37:16;3.20;;;0.90;;
42906;SDS011;28552;51.146;6.576;2022-08-03T09:43:44;2.75;;;1.05;;
42906;SDS011;28552;51.146;6.576;2022-08-03T09:46:47;1.27;;;0.60;;
42906;SDS011;28552;51.146;6.576;2022-08-03T09:49:56;2.50;;;1.10;;
42906;SDS011;28552;51.146;6.576;2022-08-03T09:53:00;1.05;;;0.60;;
42906;SDS011;28552;51.146;6.576;2022-08-03T09:56:02;3.13;;;0.70;;
42906;SDS011;28552;51.146;6.576;2022-08-03T09:59:03;1.88;;;0.73;;
42906;SDS011;28552;51.146;6.576;2022-08-03T10:02:03;1.58;;;0.63;;
42906;SDS011;28552;51.146;6.576;2022-08-03T10:05:05;1.77;;;0.80;;
42906;SDS011;28552;51.146;6.576;2022-08-03T10:08:13;2.55;;;0.90;;
42906;SDS011;28552;51.146;6.576;2022-08-03T10:11:28;2.22;;;0.88;;
42906;SDS011;28552;51.146;6.576;2022-08-03T10:14:29;1.67;;;0.80;;
42906;SDS011;28552;51.146;6.576;2022-08-03T10:17:31;2.03;;;0.85;;
42906;SDS011;28552;51.146;6.576;2022-08-03T10:20:35;5.10;;;0.80;;
42906;SDS011;28552;51.146;6.576;2022-08-03T10:23:40;2.33;;;0.90;;
42906;SDS011;28552;51.146;6.576;2022-08-03T10:26:41;2.00;;;0.70;;
42906;SDS011;28552;51.146;6.576;2022-08-03T10:29:44;1.33;;;0.63;;
42906;SDS011;28552;51.146;6.576;2022-08-03T10:32:54;1.95;;;0.70;;
42906;SDS011;28552;51.146;6.576;2022-08-03T10:35:58;2.33;;;0.82;;
42906;SDS011;28552;51.146;6.576;2022-08-03T10:39:01;1.35;;;0.70;;
42906;SDS011;28552;51.146;6.576;2022-08-03T10:42:02;1.42;;;0.60;;
42906;SDS011;28552;51.146;6.576;2022-08-03T10:45:05;3.42;;;0.85;;
42906;SDS011;28552;51.146;6.576;2022-08-03T10:48:11;4.90;;;1.00;;
42906;SDS011;28552;51.146;6.576;2022-08-03T10:51:13;1.85;;;0.93;;
42906;SDS011;28552;51.146;6.576;2022-08-03T10:57:53;1.25;;;0.68;;
42906;SDS011;28552;51.146;6.576;2022-08-03T11:00:54;1.00;;;0.60;;
42906;SDS011;28552;51.146;6.576;2022-08-03T11:07:17;1.95;;;0.80;;
42906;SDS011;28552;51.146;6.576;2022-08-03T11:13:31;3.55;;;1.00;;
42906;SDS011;28552;51.146;6.576;2022-08-03T11:16:33;1.23;;;0.68;;
42906;SDS011;28552;51.146;6.576;2022-08-03T11:19:44;1.77;;;0.73;;
42906;SDS011;28552;51.146;6.576;2022-08-03T11:22:46;1.23;;;0.70;;
42906;SDS011;28552;51.146;6.576;2022-08-03T11:36:00;2.83;;;0.80;;
42906;SDS011;28552;51.146;6.576;2022-08-03T11:42:37;2.42;;;0.95;;
42906;SDS011;28552;51.146;6.576;2022-08-03T11:45:37;1.85;;;0.80;;
42906;SDS011;28552;51.146;6.576;2022-08-03T11:48:54;3.13;;;0.90;;
42906;SDS011;28552;51.146;6.576;2022-08-03T11:52:04;5.47;;;1.20;;
42906;SDS011;28552;51.146;6.576;2022-08-03T11:55:07;1.80;;;0.70;;
42906;SDS011;28552;51.146;6.576;2022-08-03T11:58:17;1.30;;;0.80;;
42906;SDS011;28552;51.146;6.576;2022-08-03T12:04:20;2.08;;;0.80;;
42906;SDS011;28552;51.146;6.576;2022-08-03T12:07:20;2.67;;;0.93;;
42906;SDS011;28552;51.146;6.576;2022-08-03T12:10:21;3.25;;;0.90;;
42906;SDS011;28552;51.146;6.576;2022-08-03T12:13:22;3.08;;;1.30;;
42906;SDS011;28552;51.146;6.576;2022-08-03T12:16:24;1.67;;;0.70;;
42906;SDS011;28552;51.146;6.576;2022-08-03T12:19:39;1.90;;;0.80;;
42906;SDS011;28552;51.146;6.576;2022-08-03T12:22:41;1.95;;;0.85;;
42906;SDS011;28552;51.146;6.576;2022-08-03T12:25:42;1.60;;;0.73;;
42906;SDS011;28552;51.146;6.576;2022-08-03T12:28:46;1.88;;;0.80;;
42906;SDS011;28552;51.146;6.576;2022-08-03T12:31:47;3.67;;;0.95;;
42906;SDS011;28552;51.146;6.576;2022-08-03T12:34:49;3.60;;;0.80;;
42906;SDS011;28552;51.146;6.576;2022-08-03T12:37:50;1.63;;;0.63;;
42906;SDS011;28552;51.146;6.576;2022-08-03T12:40:55;1.27;;;0.63;;
42906;SDS011;28552;51.146;6.576;2022-08-03T12:43:56;1.83;;;0.80;;
42906;SDS011;28552;51.146;6.576;2022-08-03T12:46:58;1.70;;;0.80;;
42906;SDS011;28552;51.146;6.576;2022-08-03T12:49:59;4.03;;;0.90;;
42906;SDS011;28552;51.146;6.576;2022-08-03T12:53:01;1.75;;;0.75;;
42906;SDS011;28552;51.146;6.576;2022-08-03T12:56:04;2.25;;;0.70;;
42906;SDS011;28552;51.146;6.576;2022-08-03T13:02:25;2.60;;;1.13;;
42906;SDS011;28552;51.146;6.576;2022-08-03T13:05:27;0.88;;;0.52;;
42906;SDS011;28552;51.146;6.576;2022-08-03T13:08:28;2.67;;;0.75;;
42906;SDS011;28552;51.146;6.576;2022-08-03T13:11:28;1.95;;;0.70;;
42906;SDS011;28552;51.146;6.576;2022-08-03T13:14:29;0.88;;;0.52;;
42906;SDS011;28552;51.146;6.576;2022-08-03T13:17:29;0.95;;;0.57;;
42906;SDS011;28552;51.146;6.576;2022-08-03T13:20:30;1.65;;;0.70;;
42906;SDS011;28552;51.146;6.576;2022-08-03T13:23:31;2.72;;;1.00;;
42906;SDS011;28552;51.146;6.576;2022-08-03T13:26:31;1.27;;;0.50;;
42906;SDS011;28552;51.146;6.576;2022-08-03T13:29:32;1.83;;;0.60;;
42906;SDS011;28552;51.146;6.576;2022-08-03T13:32:33;1.65;;;0.60;;
42906;SDS011;28552;51.146;6.576;2022-08-03T13:35:34;1.38;;;0.45;;
42906;SDS011;28552;51.146;6.576;2022-08-03T13:38:35;1.58;;;0.50;;
42906;SDS011;28552;51.146;6.576;2022-08-03T13:41:35;0.93;;;0.50;;
42906;SDS011;28552;51.146;6.576;2022-08-03T13:44:36;1.40;;;0.60;;
42906;SDS011;28552;51.146;6.576;2022-08-03T13:47:37;1.65;;;0.52;;
42906;SDS011;28552;51.146;6.576;2022-08-03T13:50:37;0.88;;;0.40;;
42906;SDS011;28552;51.146;6.576;2022-08-03T13:53:38;2.58;;;0.45;;
42906;SDS011;28552;51.146;6.576;2022-08-03T13:56:38;1.65;;;0.50;;
42906;SDS011;28552;51.146;6.576;2022-08-03T13:59:39;0.73;;;0.40;;
42906;SDS011;28552;51.146;6.576;2022-08-03T14:02:40;2.00;;;0.50;;
42906;SDS011;28552;51.146;6.576;2022-08-03T14:05:41;1.42;;;0.70;;
42906;SDS011;28552;51.146;6.576;2022-08-03T14:08:42;1.60;;;0.50;;
42906;SDS011;28552;51.146;6.576;2022-08-03T14:11:44;0.43;;;0.40;;
42906;SDS011;28552;51.146;6.576;2022-08-03T14:14:44;1.23;;;0.40;;
42906;SDS011;28552;51.146;6.576;2022-08-03T14:17:45;0.82;;;0.50;;
42906;SDS011;28552;51.146;6.576;2022-08-03T14:20:45;0.73;;;0.32;;
42906;SDS011;28552;51.146;6.576;2022-08-03T14:23:46;1.17;;;0.32;;
42906;SDS011;28552;51.146;6.576;2022-08-03T14:26:46;2.13;;;0.50;;
42906;SDS011;28552;51.146;6.576;2022-08-03T14:29:47;1.33;;;0.47;;
42906;SDS011;28552;51.146;6.576;2022-08-03T14:32:47;0.88;;;0.30;;
42906;SDS011;28552;51.146;6.576;2022-08-03T14:35:48;0.88;;;0.40;;
42906;SDS011;28552;51.146;6.576;2022-08-03T14:38:49;1.80;;;0.50;;
42906;SDS011;28552;51.146;6.576;2022-08-03T14:41:50;2.63;;;0.40;;
42906;SDS011;28552;51.146;6.576;2022-08-03T14:44:50;0.30;;;0.30;;
42906;SDS011;28552;51.146;6.576;2022-08-03T14:47:51;1.17;;;0.57;;
42906;SDS011;28552;51.146;6.576;2022-08-03T14:50:52;0.43;;;0.30;;
42906;SDS011;28552;51.146;6.576;2022-08-03T14:53:54;2.05;;;0.40;;
42906;SDS011;28552;51.146;6.576;2022-08-03T14:56:54;1.08;;;0.50;;
42906;SDS011;28552;51.146;6.576;2022-08-03T14:59:55;1.10;;;0.40;;
42906;SDS011;28552;51.146;6.576;2022-08-03T15:02:55;1.23;;;0.40;;
42906;SDS011;28552;51.146;6.576;2022-08-03T15:05:56;0.43;;;0.30;;
42906;SDS011;28552;51.146;6.576;2022-08-03T15:08:57;2.70;;;0.38;;
42906;SDS011;28552;51.146;6.576;2022-08-03T15:11:57;0.57;;;0.40;;
42906;SDS011;28552;51.146;6.576;2022-08-03T15:14:58;0.77;;;0.30;;
42906;SDS011;28552;51.146;6.576;2022-08-03T15:17:59;2.50;;;0.50;;
42906;SDS011;28552;51.146;6.576;2022-08-03T15:20:59;0.65;;;0.32;;
42906;SDS011;28552;51.146;6.576;2022-08-03T15:24:01;1.17;;;0.38;;
42906;SDS011;28552;51.146;6.576;2022-08-03T15:27:01;1.17;;;0.52;;
42906;SDS011;28552;51.146;6.576;2022-08-03T15:30:02;0.30;;;0.30;;
42906;SDS011;28552;51.146;6.576;2022-08-03T15:33:05;1.10;;;0.30;;
42906;SDS011;28552;51.146;6.576;2022-08-03T15:36:06;0.45;;;0.35;;
42906;SDS011;28552;51.146;6.576;2022-08-03T15:39:06;3.50;;;0.60;;
42906;SDS011;28552;51.146;6.576;2022-08-03T15:42:07;1.38;;;0.52;;
42906;SDS011;28552;51.146;6.576;2022-08-03T15:45:07;0.95;;;0.40;;
42906;SDS011;28552;51.146;6.576;2022-08-03T15:48:08;0.35;;;0.22;;
42906;SDS011;28552;51.146;6.576;2022-08-03T15:51:09;1.50;;;0.57;;
42906;SDS011;28552;51.146;6.576;2022-08-03T15:54:10;3.60;;;0.73;;
42906;SDS011;28552;51.146;6.576;2022-08-03T15:57:11;0.55;;;0.40;;
42906;SDS011;28552;51.146;6.576;2022-08-03T16:00:12;1.55;;;0.57;;
42906;SDS011;28552;51.146;6.576;2022-08-03T16:03:13;1.75;;;0.52;;
42906;SDS011;28552;51.146;6.576;2022-08-03T16:06:13;0.47;;;0.30;;
42906;SDS011;28552;51.146;6.576;2022-08-03T16:09:14;1.55;;;0.30;;
42906;SDS011;28552;51.146;6.576;2022-08-03T16:12:15;1.05;;;0.47;;
42906;SDS011;28552;51.146;6.576;2022-08-03T16:15:15;0.50;;;0.30;;
42906;SDS011;28552;51.146;6.576;2022-08-03T16:18:16;1.02;;;0.60;;
42906;SDS011;28552;51.146;6.576;2022-08-03T16:21:17;1.85;;;0.50;;
42906;SDS011;28552;51.146;6.576;2022-08-03T16:24:18;2.95;;;0.80;;
42906;SDS011;28552;51.146;6.576;2022-08-03T16:27:19;4.07;;;0.65;;
42906;SDS011;28552;51.146;6.576;2022-08-03T16:30:20;0.82;;;0.40;;
42906;SDS011;28552;51.146;6.576;2022-08-03T16:33:21;2.10;;;0.95;;
42906;SDS011;28552;51.146;6.576;2022-08-03T16:36:21;1.73;;;0.40;;
42906;SDS011;28552;51.146;6.576;2022-08-03T16:39:22;0.98;;;0.45;;
42906;SDS011;28552;51.146;6.576;2022-08-03T16:42:22;0.82;;;0.50;;
42906;SDS011;28552;51.146;6.576;2022-08-03T16:45:23;0.95;;;0.40;;
42906;SDS011;28552;51.146;6.576;2022-08-03T16:48:24;2.83;;;0.60;;
42906;SDS011;28552;51.146;6.576;2022-08-03T16:51:24;2.63;;;0.60;;
42906;SDS011;28552;51.146;6.576;2022-08-03T16:54:25;1.40;;;0.57;;
42906;SDS011;28552;51.146;6.576;2022-08-03T16:57:25;2.70;;;0.82;;
42906;SDS011;28552;51.146;6.576;2022-08-03T17:00:26;2.28;;;0.50;;
42906;SDS011;28552;51.146;6.576;2022-08-03T17:03:27;0.82;;;0.40;;
42906;SDS011;28552;51.146;6.576;2022-08-03T17:06:34;2.05;;;0.57;;
42906;SDS011;28552;51.146;6.576;2022-08-03T17:09:37;1.30;;;0.50;;
42906;SDS011;28552;51.146;6.576;2022-08-03T17:12:38;4.85;;;0.60;;
42906;SDS011;28552;51.146;6.576;2022-08-03T17:15:39;2.72;;;0.57;;
42906;SDS011;28552;51.146;6.576;2022-08-03T17:18:44;2.38;;;0.70;;
42906;SDS011;28552;51.146;6.576;2022-08-03T17:21:55;0.93;;;0.50;;
42906;SDS011;28552;51.146;6.576;2022-08-03T17:25:04;1.25;;;0.50;;
42906;SDS011;28552;51.146;6.576;2022-08-03T17:28:08;1.58;;;0.75;;
42906;SDS011;28552;51.146;6.576;2022-08-03T17:31:09;1.38;;;0.80;;
42906;SDS011;28552;51.146;6.576;2022-08-03T17:34:18;1.23;;;0.52;;
42906;SDS011;28552;51.146;6.576;2022-08-03T17:37:20;2.38;;;0.57;;
42906;SDS011;28552;51.146;6.576;2022-08-03T17:40:21;1.48;;;0.60;;
42906;SDS011;28552;51.146;6.576;2022-08-03T17:43:22;3.25;;;0.60;;
42906;SDS011;28552;51.146;6.576;2022-08-03T17:46:24;1.25;;;0.50;;
42906;SDS011;28552;51.146;6.576;2022-08-03T17:49:25;2.17;;;0.80;;
42906;SDS011;28552;51.146;6.576;2022-08-03T17:52:29;2.05;;;0.80;;
42906;SDS011;28552;51.146;6.576;2022-08-03T17:55:35;2.72;;;0.68;;
42906;SDS011;28552;51.146;6.576;2022-08-03T18:05:02;1.25;;;0.50;;
42906;SDS011;28552;51.146;6.576;2022-08-03T18:08:05;1.90;;;0.55;;
42906;SDS011;28552;51.146;6.576;2022-08-03T18:11:08;2.25;;;0.77;;
42906;SDS011;28552;51.146;6.576;2022-08-03T18:14:20;1.70;;;0.60;;
42906;SDS011;28552;51.146;6.576;2022-08-03T18:17:32;3.58;;;0.63;;
42906;SDS011;28552;51.146;6.576;2022-08-03T18:20:34;1.27;;;0.60;;
42906;SDS011;28552;51.146;6.576;2022-08-03T18:23:37;2.08;;;0.70;;
42906;SDS011;28552;51.146;6.576;2022-08-03T18:26:37;2.17;;;0.77;;
42906;SDS011;28552;51.146;6.576;2022-08-03T18:29:40;0.95;;;0.40;;
42906;SDS011;28552;51.146;6.576;2022-08-03T18:32:42;1.65;;;0.70;;
42906;SDS011;28552;51.146;6.576;2022-08-03T18:35:44;1.35;;;0.60;;
42906;SDS011;28552;51.146;6.576;2022-08-03T18:38:45;1.60;;;0.55;;
42906;SDS011;28552;51.146;6.576;2022-08-03T18:41:47;0.90;;;0.40;;
42906;SDS011;28552;51.146;6.576;2022-08-03T18:44:48;2.60;;;0.70;;
42906;SDS011;28552;51.146;6.576;2022-08-03T18:47:57;2.83;;;0.50;;
42906;SDS011;28552;51.146;6.576;2022-08-03T18:51:09;3.38;;;0.80;;
42906;SDS011;28552;51.146;6.576;2022-08-03T18:54:14;1.33;;;0.50;;
42906;SDS011;28552;51.146;6.576;2022-08-03T18:57:21;1.23;;;0.65;;
42906;SDS011;28552;51.146;6.576;2022-08-03T19:00:27;1.77;;;0.68;;
42906;SDS011;28552;51.146;6.576;2022-08-03T19:03:32;2.00;;;0.95;;
42906;SDS011;28552;51.146;6.576;2022-08-03T19:06:37;2.67;;;0.70;;
42906;SDS011;28552;51.146;6.576;2022-08-03T19:12:50;1.40;;;0.57;;